ADDS METAR Data INFO
IDs: Format: Raw Decoded Include TAF

Data at: 0754 UTC 24 May 2018

KECU 240735Z AUTO 14009KT 10SM BKN070 BKN080 22/19 A3013 RMK AO2
KECU 240715Z AUTO 14010G15KT 10SM FEW030 SCT060 BKN070 22/19 A3013 RMK AO2
KECU 240655Z AUTO 14008G14KT 10SM SCT029 SCT041 BKN055 22/19 A3014 RMK AO2
KECU 240635Z AUTO 13007KT 10SM FEW033 FEW050 BKN080 23/19 A3014 RMK AO2
KECU 240615Z AUTO 14006KT 10SM SCT032 BKN047 BKN055 23/19 A3015 RMK AO2
KECU 240555Z AUTO 14006KT 10SM FEW031 SCT038 BKN050 23/19 A3015 RMK AO2
KECU 240535Z AUTO 11004KT 10SM FEW035 SCT041 BKN050 23/18 A3015 RMK AO2
KECU 240515Z AUTO 13007KT 10SM FEW031 SCT046 BKN055 23/18 A3015 RMK AO2
KECU 240455Z AUTO 12008G13KT 10SM FEW039 FEW047 SCT055 24/18 A3015 RMK AO2
KECU 240435Z AUTO 12008KT 10SM CLR 24/18 A3014 RMK AO2
KECU 240415Z AUTO 12007KT 10SM CLR 24/17 A3013 RMK AO2
KECU 240355Z AUTO 12005KT 10SM FEW046 24/17 A3012 RMK AO2
KECU 240335Z AUTO 11005KT 10SM CLR 24/17 A3011 RMK AO2
KECU 240315Z AUTO 12004KT 10SM CLR 24/16 A3010 RMK AO2
KECU 240255Z AUTO 12003KT 10SM CLR 25/16 A3009 RMK AO2
KECU 240235Z AUTO 13005KT 10SM CLR 25/16 A3009 RMK AO2
KECU 240215Z AUTO 13004KT 10SM CLR 25/16 A3008 RMK AO2
KECU 240155Z AUTO 13006KT 10SM CLR 26/16 A3007 RMK AO2
KECU 240135Z AUTO 13007G12KT 10SM CLR 26/16 A3007 RMK AO2
KECU 240115Z AUTO 14008G14KT 10SM CLR 27/16 A3006 RMK AO2
KECU 240055Z AUTO 14012KT 10SM CLR 27/16 A3005 RMK AO2
KECU 240035Z AUTO 15011G17KT 10SM FEW050 27/16 A3004 RMK AO2
KECU 240015Z AUTO 16012KT 10SM SCT050 SCT060 28/16 A3004 RMK AO2
KECU 232355Z AUTO 14011G17KT 10SM BKN055 BKN065 29/16 A3004 RMK AO2
KECU 232335Z AUTO 14010KT 10SM SCT055 SCT065 29/16 A3004 RMK AO2
KECU 232315Z AUTO 12008G16KT 10SM SCT055 BKN065 30/16 A3004 RMK AO2
KECU 232255Z AUTO 15011KT 110V170 10SM SCT055 SCT065 30/16 A3004 RMK AO2
KECU 232235Z AUTO 15009G15KT 090V170 10SM SCT055 SCT070 31/15 A3004 RMK AO2
KECU 232215Z AUTO 17008G15KT 10SM SCT060 31/16 A3004 RMK AO2
KECU 232155Z AUTO 13008G16KT 10SM FEW055 30/15 A3005 RMK AO2
KECU 232135Z AUTO 10007G15KT 10SM FEW055 30/15 A3006 RMK AO2
KECU 232115Z AUTO 16008G15KT 10SM FEW060 30/15 A3006 RMK AO2
KECU 232055Z AUTO 10009KT 10SM CLR 30/15 A3007 RMK AO2
KECU 232035Z AUTO 13007G13KT 10SM CLR 30/15 A3007 RMK AO2
KECU 232015Z AUTO 14008KT 110V170 10SM CLR 30/15 A3008 RMK AO2
KECU 231955Z AUTO 12006G13KT 10SM FEW050 29/16 A3009 RMK AO2
KECU 231935Z AUTO 16009G14KT 10SM FEW048 29/16 A3009 RMK AO2
KECU 231915Z AUTO 13009KT 090V170 10SM FEW048 28/16 A3010 RMK AO2
KECU 231855Z AUTO 16006G14KT 10SM CLR 28/16 A3011 RMK AO2
KECU 231835Z AUTO 15011KT 10SM CLR 28/16 A3011 RMK AO2
KECU 231815Z AUTO 14007G15KT 10SM CLR 28/16 A3012 RMK AO2
KECU 231755Z AUTO 17008KT 130V200 10SM FEW040 27/17 A3012 RMK AO2
KECU 231735Z AUTO 16008G14KT 130V190 10SM CLR 27/17 A3013 RMK AO2
KECU 231715Z AUTO 14009G14KT 110V180 10SM CLR 26/16 A3013 RMK AO2
KECU 231655Z AUTO 15012KT 10SM CLR 26/17 A3013 RMK AO2
KECU 231635Z AUTO 16014KT 10SM FEW029 26/16 A3014 RMK AO2
KECU 231615Z AUTO 15011KT 10SM SCT027 25/17 A3014 RMK AO2
KECU 231555Z AUTO 17013KT 10SM FEW021 SCT027 24/17 A3014 RMK AO2
KECU 231535Z AUTO 16012G17KT 10SM BKN021 BKN027 24/17 A3014 RMK AO2
KECU 231515Z AUTO 16012G17KT 10SM BKN025 23/18 A3014 RMK AO2
KECU 231455Z AUTO 15012G18KT 10SM SCT020 BKN025 22/17 A3014 RMK AO2
KECU 231435Z AUTO 15012G17KT 10SM BKN018 OVC023 22/17 A3014 RMK AO2
KECU 231415Z AUTO 16012KT 10SM BKN019 OVC025 21/18 A3013 RMK AO2
KECU 231355Z AUTO 14010G17KT 10SM BKN017 OVC021 21/18 A3013 RMK AO2
KECU 231335Z AUTO 15012KT 10SM BKN015 OVC020 20/17 A3012 RMK AO2
KECU 231315Z AUTO 15011KT 10SM BKN012 OVC019 20/18 A3012 RMK AO2
KECU 231255Z AUTO 15010KT 10SM BKN012 OVC019 20/18 A3011 RMK AO2
KECU 231235Z AUTO 14010G16KT 10SM BKN015 OVC020 20/17 A3010 RMK AO2
KECU 231215Z AUTO 15007G14KT 10SM OVC014 20/17 A3010 RMK AO2
KECU 231155Z AUTO 14009G14KT 10SM OVC016 20/17 A3009 RMK AO2
KECU 231135Z AUTO 14010KT 10SM OVC015 20/17 A3008 RMK AO2
KECU 231115Z AUTO 14009KT 10SM OVC014 19/17 A3007 RMK AO2
KECU 231055Z AUTO 15012KT 10SM OVC014 19/17 A3007 RMK AO2
KECU 231035Z AUTO 14012KT 10SM BKN013 OVC022 19/17 A3006 RMK AO2
KECU 231015Z AUTO 14010G16KT 10SM BKN014 OVC033 19/17 A3006 RMK AO2
KECU 230955Z AUTO 14007G13KT 10SM FEW015 OVC034 20/17 A3006 RMK AO2
KECU 230935Z AUTO 14008KT 10SM OVC034 20/17 A3005 RMK AO2
KECU 230915Z AUTO 13009KT 10SM OVC033 20/17 A3004 RMK AO2
KECU 230855Z AUTO 14009KT 10SM OVC032 20/17 A3005 RMK AO2
KECU 230835Z AUTO 14009G17KT 10SM OVC033 20/17 A3005 RMK AO2
KECU 230815Z AUTO 13011KT 10SM OVC034 20/17 A3005 RMK AO2
KECU 230755Z AUTO 14007KT 10SM OVC034 21/17 A3005 RMK AO2
KECU 230735Z AUTO 13010KT 10SM OVC038 21/17 A3005 RMK AO2
KECU 230715Z AUTO 14012G18KT 10SM BKN039 BKN044 21/18 A3005 RMK AO2
KECU 230655Z AUTO 13011KT 10SM BKN038 BKN046 22/18 A3005 RMK AO2
KECU 230635Z AUTO 14010G15KT 10SM SCT036 SCT041 BKN046 22/18 A3005 RMK AO2
KECU 230615Z AUTO 13008G18KT 10SM FEW027 SCT038 BKN046 22/18 A3005 RMK AO2
KECU 230555Z AUTO 14010KT 10SM FEW034 BKN042 BKN048 23/18 A3006 RMK AO2
KECU 230535Z AUTO 14012G19KT 10SM SCT035 BKN040 BKN046 23/18 A3007 RMK AO2
KECU 230515Z AUTO 14013G20KT 10SM BKN036 BKN041 BKN047 23/18 A3006 RMK AO2
KECU 230455Z AUTO 14009G16KT 10SM BKN038 BKN047 OVC050 24/18 A3007 RMK AO2
KECU 230435Z AUTO 13008KT 10SM SCT043 OVC050 24/18 A3007 RMK AO2
KECU 230415Z AUTO 13007KT 10SM OVC048 24/18 A3007 RMK AO2
KECU 230355Z AUTO 13008G14KT 10SM SCT049 BKN055 24/17 A3005 RMK AO2
KECU 230335Z AUTO 12008KT 10SM SCT050 BKN055 24/17 A3004 RMK AO2
KECU 230315Z AUTO 13005G10KT 10SM BKN050 24/17 A3002 RMK AO2
KECU 230255Z AUTO 12005KT 10SM BKN055 24/17 A3002 RMK AO2
KECU 230235Z AUTO 12006KT 10SM SCT050 24/17 A3002 RMK AO2
KECU 230215Z AUTO 12006KT 10SM CLR 25/17 A3001 RMK AO2
KECU 230155Z AUTO 13009KT 10SM CLR 25/17 A3000 RMK AO2
KECU 230135Z AUTO 12006G12KT 10SM CLR 25/17 A3000 RMK AO2
KECU 230115Z AUTO 13009KT 10SM CLR 26/17 A2999 RMK AO2
KECU 230055Z AUTO 13007G14KT 10SM CLR 26/17 A2999 RMK AO2
KECU 230035Z AUTO 13008G14KT 10SM CLR 27/17 A2999 RMK AO2
KECU 230015Z AUTO 15011KT 10SM CLR 27/17 A2999 RMK AO2
KECU 222355Z AUTO 15009G18KT 10SM CLR 27/17 A2999 RMK AO2
KECU 222335Z AUTO 16011G16KT 10SM CLR 28/17 A2999 RMK AO2 LTG DSNT S
KECU 222315Z AUTO 16010G18KT 10SM CLR 28/17 A2999 RMK AO2
KECU 222255Z AUTO 14010G15KT 10SM FEW048 FEW055 29/17 A2999 RMK AO2
KECU 222235Z AUTO 15008G18KT 10SM FEW049 29/16 A3000 RMK AO2
KECU 222215Z AUTO 15013KT 120V180 10SM FEW050 29/16 A3000 RMK AO2
KECU 222155Z AUTO 13010G19KT 10SM FEW049 FEW055 28/17 A3000 RMK AO2
KECU 222135Z AUTO 15014KT 10SM FEW050 SCT060 28/16 A3000 RMK AO2
KECU 222115Z AUTO 16012G17KT 10SM FEW049 FEW060 FEW070 29/16 A3001 RMK AO2
KECU 222055Z AUTO 15011KT 10SM CLR 29/16 A3001 RMK AO2
KECU 222035Z AUTO 15013KT 10SM FEW050 FEW060 29/16 A3002 RMK AO2
KECU 222015Z AUTO 16013G21KT 10SM BKN050 BKN060 29/16 A3003 RMK AO2
KECU 221955Z AUTO 13009G15KT 10SM BKN046 BKN055 28/16 A3003 RMK AO2